Pink Coral — 9HPY9 — position and weather

sailwx.info

Track history (hours):
 
Tides and Currents Weather Stations Pressure Air Temp Water Temp Dewpoint Dewpoint Depression Visibility Wind Speed Wind Dir Waves Ship Positions

Pink Coral

Last reported at 2014-Jul-19 08:27 UTC. Time now 2014-Jul-22 15:00 UTC.
Position N 38°50' E 025°12'.

Length 183 m; draft 8.6 m.

Type: Tanker. MMSI: 249344000.

Date/timePositionNaut miles runAvg speedWind from/ knotsBaromVisibWave heightAir tempDewpointWater temp
2014-Jul-19 08:27N 38°50' E 025°12'6312.9
2014-Jul-19 03:32N 37°54' E 024°35'2813.2
2014-Jul-19 01:25N 37°34' E 024°10'1113.1
2014-Jul-19 00:33N 37°25' E 024°02'1313.2
2014-Jul-18 23:33N 37°13' E 023°53'1313.2
2014-Jul-18 22:33N 37°02' E 023°45'1713.1
2014-Jul-18 21:17N 36°48' E 023°34'1013.0
2014-Jul-18 20:33N 36°40' E 023°27'1313.0
2014-Jul-18 19:32N 36°29' E 023°18'380 9.7
2014-Jul-17 04:20N 35°08' E 015°40'2 0.6
2014-Jul-17 01:32N 35°09' E 015°39'1 0.7
2014-Jul-17 00:32N 35°10' E 015°39'1 0.7
2014-Jul-16 23:32N 35°10' E 015°38'6 0.9
2014-Jul-16 17:28N 35°12' E 015°32'22 0.8
2014-Jul-15 13:28N 35°13' E 015°05'0 0.2
2014-Jul-15 11:28N 35°14' E 015°04'1 0.9
2014-Jul-15 10:28N 35°14' E 015°04'1 1.1
2014-Jul-15 09:28N 35°15' E 015°03'1 1.3
2014-Jul-15 08:22N 35°16' E 015°01'33510.1
2014-Jul-13 23:18N 38°19' E 009°11'3712.9
2014-Jul-13 20:28N 38°38' E 008°30'1313.9
2014-Jul-13 19:30N 38°47' E 008°17'1514.0
2014-Jul-13 18:27N 38°57' E 008°05'3213.7
2014-Jul-13 16:07N 39°25' E 007°44'813.7
2014-Jul-13 15:31N 39°32' E 007°39'12513.4
2014-Jul-13 06:09N 41°22' E 006°20'2714.1
2014-Jul-13 04:15N 41°46' E 006°03'2313.2
2014-Jul-13 02:33N 42°06' E 005°49'1514.0
2014-Jul-13 01:28N 42°19' E 005°39'1213.0
2014-Jul-13 00:33N 42°29' E 005°31'1313.4
2014-Jul-12 23:33N 42°41' E 005°23'1413.8
2014-Jul-12 22:33N 42°53' E 005°14'1413.8
2014-Jul-12 21:33N 43°05' E 005°05'1413.6
2014-Jul-12 20:33N 43°18' E 004°59'7 7.3
2014-Jul-12 19:32N 43°25' E 004°53'0 0.0
2014-Jul-12 18:32N 43°25' E 004°53'0 0.0
2014-Jul-12 17:32N 43°25' E 004°53'0 0.0
2014-Jul-12 16:32N 43°25' E 004°53'0 0.0
2014-Jul-12 15:32N 43°25' E 004°53'0 0.0
2014-Jul-12 14:32N 43°25' E 004°53'0 0.0
2014-Jul-12 13:32N 43°25' E 004°53'0 0.0
2014-Jul-12 12:32N 43°25' E 004°53'0 0.0
2014-Jul-12 11:32N 43°25' E 004°53'0 0.0
2014-Jul-12 10:32N 43°25' E 004°53'0 0.0
2014-Jul-12 09:29N 43°25' E 004°53'0 0.0
2014-Jul-12 08:32N 43°25' E 004°53'0 0.0
2014-Jul-12 07:32N 43°25' E 004°53'0 0.0
2014-Jul-12 06:32N 43°25' E 004°53'0 0.0
2014-Jul-12 05:32N 43°25' E 004°53'0 0.0
2014-Jul-12 04:32N 43°25' E 004°53'0 0.0
2014-Jul-12 03:32N 43°25' E 004°53'0 0.0
2014-Jul-12 02:32N 43°25' E 004°53'0 0.0
2014-Jul-12 01:32N 43°25' E 004°53'0 0.0
2014-Jul-12 00:32N 43°25' E 004°53'0 0.0
2014-Jul-11 23:32N 43°25' E 004°53'0 0.0
2014-Jul-11 22:32N 43°25' E 004°53'0 0.0
2014-Jul-11 21:32N 43°25' E 004°53'0 0.0
2014-Jul-11 20:32N 43°25' E 004°53'0 0.0
2014-Jul-11 19:29N 43°25' E 004°53'0 0.0
2014-Jul-11 18:32N 43°25' E 004°53'0 0.0
2014-Jul-11 17:32N 43°25' E 004°53'0 0.0
2014-Jul-11 16:32N 43°25' E 004°53'0 0.0
2014-Jul-11 15:32N 43°25' E 004°53'5 5.2
2014-Jul-11 14:34N 43°21' E 004°59'9 9.2
2014-Jul-11 13:33N 43°13' E 005°03'1111.3
2014-Jul-11 12:33N 43°03' E 005°10'1110.7
2014-Jul-11 11:33N 42°53' E 005°16'10 9.6
2014-Jul-11 10:32N 42°44' E 005°23'10 9.0
2014-Jul-11 09:26N 42°36' E 005°29'10 9.1
2014-Jul-11 08:21N 42°27' E 005°35'204 7.4
2014-Jul-10 04:33N 39°27' E 007°43'4911.1
2014-Jul-10 00:07N 38°46' E 008°18'1311.8
2014-Jul-09 23:03N 38°39' E 008°32'712.7
2014-Jul-09 22:32N 38°37' E 008°40'1613.4
2014-Jul-09 21:19N 38°32' E 008°60'  
Track history (hours):
 
Tides and Currents Weather Stations Pressure Air Temp Water Temp Dewpoint Dewpoint Depression Visibility Wind Speed Wind Dir Waves Ship Positions

Pink Coral

Last reported at 2014-Jul-19 08:27 UTC. Time now 2014-Jul-22 15:00 UTC.
Position N 38°50' E 025°12'.

Length 183 m; draft 8.6 m.

Type: Tanker. MMSI: 249344000.

Date/timePositionNaut miles runAvg speedWind from/ knotsBaromVisibWave heightAir tempDewpointWater temp
2014-Jul-19 08:27N 38°50' E 025°12'6312.9
2014-Jul-19 03:32N 37°54' E 024°35'2813.2
2014-Jul-19 01:25N 37°34' E 024°10'1113.1
2014-Jul-19 00:33N 37°25' E 024°02'1313.2
2014-Jul-18 23:33N 37°13' E 023°53'1313.2
2014-Jul-18 22:33N 37°02' E 023°45'1713.1
2014-Jul-18 21:17N 36°48' E 023°34'1013.0
2014-Jul-18 20:33N 36°40' E 023°27'1313.0
2014-Jul-18 19:32N 36°29' E 023°18'380 9.7
2014-Jul-17 04:20N 35°08' E 015°40'2 0.6
2014-Jul-17 01:32N 35°09' E 015°39'1 0.7
2014-Jul-17 00:32N 35°10' E 015°39'1 0.7
2014-Jul-16 23:32N 35°10' E 015°38'6 0.9
2014-Jul-16 17:28N 35°12' E 015°32'22 0.8
2014-Jul-15 13:28N 35°13' E 015°05'0 0.2
2014-Jul-15 11:28N 35°14' E 015°04'1 0.9
2014-Jul-15 10:28N 35°14' E 015°04'1 1.1
2014-Jul-15 09:28N 35°15' E 015°03'1 1.3
2014-Jul-15 08:22N 35°16' E 015°01'33510.1
2014-Jul-13 23:18N 38°19' E 009°11'3712.9
2014-Jul-13 20:28N 38°38' E 008°30'1313.9
2014-Jul-13 19:30N 38°47' E 008°17'1514.0
2014-Jul-13 18:27N 38°57' E 008°05'3213.7
2014-Jul-13 16:07N 39°25' E 007°44'813.7
2014-Jul-13 15:31N 39°32' E 007°39'12513.4
2014-Jul-13 06:09N 41°22' E 006°20'2714.1
2014-Jul-13 04:15N 41°46' E 006°03'2313.2
2014-Jul-13 02:33N 42°06' E 005°49'1514.0
2014-Jul-13 01:28N 42°19' E 005°39'1213.0
2014-Jul-13 00:33N 42°29' E 005°31'1313.4
2014-Jul-12 23:33N 42°41' E 005°23'1413.8
2014-Jul-12 22:33N 42°53' E 005°14'1413.8
2014-Jul-12 21:33N 43°05' E 005°05'1413.6
2014-Jul-12 20:33N 43°18' E 004°59'7 7.3
2014-Jul-12 19:32N 43°25' E 004°53'0 0.0
2014-Jul-12 18:32N 43°25' E 004°53'0 0.0
2014-Jul-12 17:32N 43°25' E 004°53'0 0.0
2014-Jul-12 16:32N 43°25' E 004°53'0 0.0
2014-Jul-12 15:32N 43°25' E 004°53'0 0.0
2014-Jul-12 14:32N 43°25' E 004°53'0 0.0
2014-Jul-12 13:32N 43°25' E 004°53'0 0.0
2014-Jul-12 12:32N 43°25' E 004°53'0 0.0
2014-Jul-12 11:32N 43°25' E 004°53'0 0.0
2014-Jul-12 10:32N 43°25' E 004°53'0 0.0
2014-Jul-12 09:29N 43°25' E 004°53'0 0.0
2014-Jul-12 08:32N 43°25' E 004°53'0 0.0
2014-Jul-12 07:32N 43°25' E 004°53'0 0.0
2014-Jul-12 06:32N 43°25' E 004°53'0 0.0
2014-Jul-12 05:32N 43°25' E 004°53'0 0.0
2014-Jul-12 04:32N 43°25' E 004°53'0 0.0
2014-Jul-12 03:32N 43°25' E 004°53'0 0.0
2014-Jul-12 02:32N 43°25' E 004°53'0 0.0
2014-Jul-12 01:32N 43°25' E 004°53'0 0.0
2014-Jul-12 00:32N 43°25' E 004°53'0 0.0
2014-Jul-11 23:32N 43°25' E 004°53'0 0.0
2014-Jul-11 22:32N 43°25' E 004°53'0 0.0
2014-Jul-11 21:32N 43°25' E 004°53'0 0.0
2014-Jul-11 20:32N 43°25' E 004°53'0 0.0
2014-Jul-11 19:29N 43°25' E 004°53'0 0.0
2014-Jul-11 18:32N 43°25' E 004°53'0 0.0
2014-Jul-11 17:32N 43°25' E 004°53'0 0.0
2014-Jul-11 16:32N 43°25' E 004°53'0 0.0
2014-Jul-11 15:32N 43°25' E 004°53'5 5.2
2014-Jul-11 14:34N 43°21' E 004°59'9 9.2
2014-Jul-11 13:33N 43°13' E 005°03'1111.3
2014-Jul-11 12:33N 43°03' E 005°10'1110.7
2014-Jul-11 11:33N 42°53' E 005°16'10 9.6
2014-Jul-11 10:32N 42°44' E 005°23'10 9.0
2014-Jul-11 09:26N 42°36' E 005°29'10 9.1
2014-Jul-11 08:21N 42°27' E 005°35'204 7.4
2014-Jul-10 04:33N 39°27' E 007°43'4911.1
2014-Jul-10 00:07N 38°46' E 008°18'1311.8
2014-Jul-09 23:03N 38°39' E 008°32'712.7
2014-Jul-09 22:32N 38°37' E 008°40'1613.4
2014-Jul-09 21:19N 38°32' E 008°60'  

Dump ship's entire track history